createdAt,value
2023-02-24T00:02:05.375Z,57.63
2023-02-24T00:04:41.207Z,49.75
2023-02-24T00:07:12.766Z,51.55
2023-02-24T00:09:40.099Z,55.72
2023-02-24T00:12:11.537Z,46.78
2023-02-24T00:14:41.633Z,61.30
2023-02-24T00:17:10.617Z,49.90
2023-02-24T00:19:38.536Z,52.42
2023-02-24T00:22:08.048Z,52.10
2023-02-24T00:24:35.990Z,47.33
2023-02-24T00:27:08.642Z,47.38
2023-02-24T00:29:40.392Z,52.13
2023-02-24T00:32:13.017Z,46.03
2023-02-24T00:34:41.670Z,48.70
2023-02-24T00:37:09.362Z,45.42
2023-02-24T00:39:41.528Z,55.65
2023-02-24T00:42:11.810Z,44.25
2023-02-24T00:44:48.846Z,51.88
2023-02-24T00:47:17.232Z,50.03
2023-02-24T00:49:44.788Z,45.53
2023-02-24T00:52:14.838Z,49.10
2023-02-24T00:54:43.192Z,45.58
2023-02-24T00:57:11.643Z,42.30
2023-02-24T00:59:39.421Z,46.70
2023-02-24T01:02:07.742Z,45.33
2023-02-24T01:04:37.782Z,44.15
2023-02-24T01:07:11.143Z,43.53
2023-02-24T01:09:41.581Z,44.15
2023-02-24T01:12:30.091Z,41.20
2023-02-24T01:14:57.598Z,39.78
2023-02-24T01:17:25.594Z,40.72
2023-02-24T01:19:53.018Z,40.72
2023-02-24T01:22:23.939Z,37.83
2023-02-24T01:24:51.275Z,41.03
2023-02-24T01:27:19.569Z,43.47
2023-02-24T01:29:50.167Z,42.25
2023-02-24T01:32:21.295Z,40.28
2023-02-24T01:34:52.138Z,42.57
2023-02-24T01:37:20.702Z,47.47
2023-02-24T01:39:49.374Z,46.97
2023-02-24T01:42:20.376Z,43.45
2023-02-24T01:44:48.023Z,45.10
2023-02-24T01:47:21.170Z,43.97
2023-02-24T01:49:52.397Z,50.10
2023-02-24T01:52:30.858Z,43.13
2023-02-24T01:55:20.283Z,41.85
2023-02-24T01:57:49.856Z,42.03
2023-02-24T02:00:36.089Z,42.80
2023-02-24T02:03:26.762Z,45.40
2023-02-24T02:05:59.289Z,43.85
2023-02-24T02:08:28.361Z,45.00
2023-02-24T02:11:02.511Z,42.58
2023-02-24T02:13:38.183Z,46.38
2023-02-24T02:16:30.466Z,50.10
2023-02-24T02:19:07.039Z,40.85
2023-02-24T02:21:44.460Z,47.13
2023-02-24T02:24:30.610Z,45.80
2023-02-24T02:27:21.175Z,44.78
2023-02-24T02:30:14.231Z,39.22
2023-02-24T02:33:04.982Z,42.05
2023-02-24T02:35:37.179Z,44.47
2023-02-24T02:38:15.303Z,37.38
2023-02-24T02:40:48.342Z,33.85
2023-02-24T02:43:39.903Z,38.30
2023-02-24T02:46:34.966Z,38.17
2023-02-24T02:49:30.497Z,35.05
2023-02-24T02:52:07.521Z,31.35
2023-02-24T02:54:59.158Z,27.08
2023-02-24T02:57:29.733Z,32.60
2023-02-24T03:00:10.500Z,30.80
2023-02-24T03:02:44.576Z,26.02
2023-02-24T03:05:20.327Z,29.13
2023-02-24T03:07:54.741Z,26.77
2023-02-24T03:10:27.827Z,26.30
2023-02-24T03:13:02.150Z,25.98
2023-02-24T03:15:32.906Z,24.33
2023-02-24T03:18:13.931Z,24.85
2023-02-24T03:20:51.924Z,24.77
2023-02-24T03:23:27.057Z,19.98
2023-02-24T03:26:06.167Z,25.58
2023-02-24T03:28:42.800Z,22.50
2023-02-24T03:31:18.497Z,18.83
2023-02-24T03:34:12.434Z,20.48
2023-02-24T03:36:42.404Z,18.40
2023-02-24T03:39:12.595Z,17.42
2023-02-24T03:42:11.041Z,15.60
2023-02-24T03:44:39.705Z,18.52
2023-02-24T03:47:09.652Z,14.05
2023-02-24T03:49:38.532Z,13.90
2023-02-24T03:52:21.628Z,14.57
2023-02-24T03:55:08.688Z,12.68
2023-02-24T03:57:56.334Z,11.05
2023-02-24T04:00:58.640Z,10.93
2023-02-24T04:03:48.116Z,10.45
2023-02-24T04:06:43.350Z,12.60
2023-02-24T04:09:25.938Z,10.75
2023-02-24T04:12:14.730Z,8.55
2023-02-24T04:15:22.703Z,8.38
2023-02-24T04:18:02.925Z,8.13
2023-02-24T04:20:37.370Z,6.05
2023-02-24T04:23:11.575Z,7.47
2023-02-24T04:25:42.827Z,7.00
2023-02-24T04:28:12.334Z,7.53
2023-02-24T04:33:14.267Z,9.55
2023-02-24T04:35:45.501Z,7.28
2023-02-24T04:38:13.203Z,6.45
2023-02-24T04:40:40.987Z,7.65
2023-02-24T04:43:09.606Z,7.78
2023-02-24T04:45:40.139Z,5.95
2023-02-24T04:48:13.120Z,5.43
2023-02-24T04:50:43.328Z,5.53
2023-02-24T04:53:16.741Z,4.80
2023-02-24T04:55:49.054Z,4.95
2023-02-24T04:58:19.628Z,4.85
2023-02-24T05:00:49.108Z,4.32
2023-02-24T05:03:17.519Z,3.50
2023-02-24T05:05:56.777Z,4.15
2023-02-24T05:08:25.920Z,4.45
2023-02-24T05:10:53.962Z,3.85
2023-02-24T05:13:27.444Z,4.15
2023-02-24T05:15:57.190Z,4.57
2023-02-24T05:18:26.010Z,3.08
2023-02-24T05:21:13.904Z,5.05
2023-02-24T05:23:46.919Z,5.32
2023-02-24T05:26:17.655Z,3.17
2023-02-24T05:28:52.357Z,4.45
2023-02-24T05:31:26.630Z,5.80
2023-02-24T05:33:57.877Z,4.60
2023-02-24T05:36:27.344Z,3.90
2023-02-24T05:39:04.761Z,4.65
2023-02-24T05:41:35.797Z,7.30
2023-02-24T05:44:08.736Z,8.25
2023-02-24T05:46:44.730Z,4.97
2023-02-24T05:49:24.173Z,5.43
2023-02-24T05:51:56.443Z,7.13
2023-02-24T05:54:29.658Z,5.43
2023-02-24T05:57:12.023Z,5.93
2023-02-24T05:59:41.420Z,6.00
2023-02-24T06:02:13.997Z,6.78
2023-02-24T06:04:54.147Z,8.10
2023-02-24T06:07:27.149Z,6.63
2023-02-24T06:09:57.390Z,5.20
2023-02-24T06:12:30.347Z,7.43
2023-02-24T06:14:58.455Z,6.85
2023-02-24T06:17:26.780Z,6.63
2023-02-24T06:19:55.031Z,8.27
2023-02-24T06:22:24.841Z,5.82
2023-02-24T06:24:54.716Z,5.88
2023-02-24T06:27:24.899Z,4.57
2023-02-24T06:29:54.962Z,4.13
2023-02-24T06:32:24.911Z,7.15
2023-02-24T06:34:53.971Z,5.50
2023-02-24T06:37:23.136Z,7.10
2023-02-24T06:39:50.984Z,6.13
2023-02-24T06:42:18.440Z,9.57
2023-02-24T06:44:46.905Z,6.30
2023-02-24T06:47:18.100Z,6.25
2023-02-24T06:49:45.756Z,3.55
2023-02-24T06:52:18.665Z,4.53
2023-02-24T06:54:52.514Z,5.32
2023-02-24T06:57:20.802Z,2.72
2023-02-24T06:59:49.094Z,4.93
2023-02-24T07:02:17.742Z,3.38
2023-02-24T07:04:45.421Z,2.50
2023-02-24T07:07:14.599Z,4.35
2023-02-24T07:09:42.850Z,2.70
2023-02-24T07:12:12.766Z,3.08
2023-02-24T07:14:40.805Z,5.57
2023-02-24T07:17:08.786Z,8.23
2023-02-24T07:19:36.895Z,9.02
2023-02-24T07:22:04.699Z,7.72
2023-02-24T07:24:40.623Z,6.93
2023-02-24T07:27:12.808Z,8.93
2023-02-24T07:29:40.423Z,8.70
2023-02-24T07:32:09.475Z,8.15
2023-02-24T07:34:40.549Z,6.82
2023-02-24T07:37:09.266Z,8.10
2023-02-24T07:39:39.342Z,8.05
2023-02-24T07:42:08.967Z,9.15
2023-02-24T07:44:46.559Z,9.75
2023-02-24T07:47:16.025Z,6.57
2023-02-24T07:49:45.505Z,14.95
2023-02-24T07:52:13.035Z,12.75
2023-02-24T07:54:40.664Z,13.50
2023-02-24T07:57:13.976Z,13.38
2023-02-24T07:59:47.603Z,11.77
2023-02-24T08:02:16.026Z,14.00
2023-02-24T08:04:50.406Z,12.73
2023-02-24T08:07:24.719Z,13.07
2023-02-24T08:10:14.489Z,9.35
2023-02-24T08:12:42.948Z,17.38
2023-02-24T08:15:17.392Z,12.85
2023-02-24T08:17:47.485Z,10.40
2023-02-24T08:20:16.001Z,11.93
2023-02-24T08:22:47.188Z,7.10
2023-02-24T08:25:19.432Z,9.77
2023-02-24T08:30:39.748Z,7.88
2023-02-24T08:33:10.458Z,10.30
2023-02-24T08:35:44.735Z,8.20
2023-02-24T08:38:17.442Z,8.18
2023-02-24T08:40:51.646Z,8.45
2023-02-24T08:43:30.961Z,14.38
2023-02-24T08:46:12.635Z,9.02
2023-02-24T08:48:42.539Z,7.50
2023-02-24T08:51:22.876Z,8.77
2023-02-24T08:53:53.547Z,12.20
2023-02-24T08:56:27.088Z,7.25
2023-02-24T08:59:06.507Z,9.82
2023-02-24T09:01:40.336Z,10.45
2023-02-24T09:04:13.394Z,9.15
2023-02-24T09:06:47.188Z,5.28
2023-02-24T09:09:18.980Z,9.82
2023-02-24T09:11:56.583Z,12.23
2023-02-24T09:14:30.292Z,8.27
2023-02-24T09:17:11.793Z,12.40
2023-02-24T09:19:51.725Z,10.50
2023-02-24T09:22:31.853Z,11.75
2023-02-24T09:25:24.232Z,9.15
2023-02-24T09:28:08.356Z,10.13
2023-02-24T09:30:51.476Z,5.90
2023-02-24T09:33:41.387Z,6.97
2023-02-24T09:36:10.180Z,12.65
2023-02-24T09:38:58.528Z,10.07
2023-02-24T09:42:18.183Z,9.57
2023-02-24T09:44:52.790Z,5.55
2023-02-24T09:47:40.394Z,5.85
2023-02-24T09:51:03.139Z,11.02
2023-02-24T09:53:52.670Z,9.50
2023-02-24T09:56:37.262Z,7.53
2023-02-24T09:59:26.502Z,9.02
2023-02-24T10:02:33.011Z,7.32
2023-02-24T10:05:09.914Z,11.98
2023-02-24T10:07:40.746Z,9.52
2023-02-24T10:10:28.185Z,10.20
2023-02-24T10:13:13.919Z,6.50
2023-02-24T10:15:59.545Z,5.13
2023-02-24T10:18:33.845Z,7.03
2023-02-24T10:21:04.644Z,7.90
2023-02-24T10:23:56.631Z,11.43
2023-02-24T10:26:34.850Z,6.65
2023-02-24T10:29:43.609Z,7.97
2023-02-24T10:32:34.074Z,8.13
2023-02-24T10:35:02.222Z,11.30
2023-02-24T10:37:30.309Z,8.77
2023-02-24T10:40:09.945Z,8.85
2023-02-24T10:42:45.995Z,7.30
2023-02-24T10:45:24.527Z,9.80
2023-02-24T10:47:57.639Z,6.50
2023-02-24T10:50:32.556Z,8.25
2023-02-24T10:53:26.183Z,9.73
2023-02-24T10:56:15.281Z,11.45
2023-02-24T10:58:53.190Z,8.80
2023-02-24T11:01:46.359Z,8.05
2023-02-24T11:04:33.041Z,5.10
2023-02-24T11:07:44.019Z,8.52
2023-02-24T11:10:42.907Z,11.75
2023-02-24T11:13:35.734Z,8.63
2023-02-24T11:16:22.453Z,7.38
2023-02-24T11:18:52.492Z,5.20
2023-02-24T11:21:23.376Z,8.30
2023-02-24T11:23:59.670Z,11.00
2023-02-24T11:26:40.790Z,8.63
2023-02-24T11:29:35.537Z,9.10
2023-02-24T11:32:11.599Z,10.40
2023-02-24T11:35:01.594Z,14.90
2023-02-24T11:37:38.002Z,10.02
2023-02-24T11:40:20.228Z,9.95
2023-02-24T11:42:59.429Z,5.93
2023-02-24T11:45:54.933Z,12.23
2023-02-24T11:48:27.563Z,6.93
2023-02-24T11:51:05.005Z,9.98
2023-02-24T11:53:41.873Z,6.28
2023-02-24T11:56:23.998Z,10.38
2023-02-24T11:58:58.264Z,7.18
2023-02-24T12:01:30.152Z,9.18
2023-02-24T12:03:57.508Z,12.75
2023-02-24T12:06:48.053Z,10.55
2023-02-24T12:09:19.839Z,10.50
2023-02-24T12:12:17.571Z,9.63
2023-02-24T12:14:57.091Z,11.45
2023-02-24T12:17:41.437Z,11.30
2023-02-24T12:20:41.614Z,7.75
2023-02-24T12:23:23.300Z,10.18
2023-02-24T12:26:09.170Z,12.82
2023-02-24T12:28:54.863Z,14.27
2023-02-24T12:31:37.664Z,6.72
2023-02-24T12:34:20.742Z,7.63
2023-02-24T12:36:50.816Z,6.38
2023-02-24T12:39:33.690Z,5.28
2023-02-24T12:42:51.666Z,8.57
2023-02-24T12:45:31.782Z,14.68
2023-02-24T12:48:13.963Z,7.95
2023-02-24T12:51:26.192Z,8.60
2023-02-24T12:54:08.842Z,10.48
2023-02-24T12:57:00.516Z,6.95
2023-02-24T12:59:37.088Z,11.07
2023-02-24T13:02:26.050Z,8.32
2023-02-24T13:05:06.569Z,6.78
2023-02-24T13:08:01.768Z,6.68
2023-02-24T13:10:29.594Z,8.85
2023-02-24T13:13:40.517Z,7.07
2023-02-24T13:16:11.633Z,7.68
2023-02-24T13:18:39.726Z,2.97
2023-02-24T13:21:23.689Z,7.50
2023-02-24T13:24:03.654Z,5.63
2023-02-24T13:26:32.684Z,4.53
2023-02-24T13:29:09.522Z,7.35
2023-02-24T13:31:46.666Z,5.47
2023-02-24T13:34:43.330Z,5.55
2023-02-24T13:37:11.545Z,9.52
2023-02-24T13:39:46.897Z,5.47
2023-02-24T13:42:32.234Z,9.52
2023-02-24T13:44:59.769Z,9.18
2023-02-24T13:48:04.475Z,8.10
2023-02-24T13:51:27.841Z,5.13
2023-02-24T13:54:28.526Z,4.50
2023-02-24T13:57:18.001Z,5.97
2023-02-24T14:00:01.727Z,5.70
2023-02-24T14:02:44.108Z,7.53
2023-02-24T14:05:21.439Z,7.75
2023-02-24T14:07:51.425Z,5.80
2023-02-24T14:10:25.330Z,6.95
2023-02-24T14:13:17.929Z,6.72
2023-02-24T14:18:23.630Z,8.10
2023-02-24T14:20:52.736Z,6.80
2023-02-24T14:23:25.073Z,7.80
2023-02-24T14:26:05.967Z,10.60
2023-02-24T14:28:36.069Z,9.57
2023-02-24T14:31:08.870Z,7.63
2023-02-24T14:33:39.365Z,6.18
2023-02-24T14:36:16.625Z,7.30
2023-02-24T14:38:45.318Z,6.43
2023-02-24T14:41:25.202Z,8.82
2023-02-24T14:43:53.506Z,6.70
2023-02-24T14:46:21.297Z,9.43
2023-02-24T14:48:54.683Z,13.23
2023-02-24T14:51:34.953Z,11.60
2023-02-24T14:54:09.490Z,8.40
2023-02-24T14:56:37.158Z,12.75
2023-02-24T14:59:40.233Z,7.32
2023-02-24T15:02:18.544Z,7.70
2023-02-24T15:04:47.603Z,7.78
2023-02-24T15:07:21.600Z,6.35
2023-02-24T15:09:51.750Z,8.55
2023-02-24T15:12:19.029Z,5.85
2023-02-24T15:14:53.705Z,8.07
2023-02-24T15:17:23.391Z,5.50
2023-02-24T15:19:54.825Z,5.57
2023-02-24T15:22:33.593Z,9.75
2023-02-24T15:25:16.533Z,12.82
2023-02-24T15:27:55.192Z,9.15
2023-02-24T15:30:30.803Z,6.80
2023-02-24T15:33:18.908Z,7.13
2023-02-24T15:35:54.026Z,6.75
2023-02-24T15:38:25.726Z,9.00
2023-02-24T15:43:47.858Z,14.15
2023-02-24T15:46:33.407Z,12.65
2023-02-24T15:49:04.707Z,6.65
2023-02-24T15:51:41.452Z,7.53
2023-02-24T15:54:15.030Z,8.88
2023-02-24T15:56:45.307Z,8.63
2023-02-24T15:59:17.745Z,9.32
2023-02-24T16:01:45.362Z,10.20
2023-02-24T16:04:12.705Z,6.05
2023-02-24T16:06:43.918Z,14.05
2023-02-24T16:09:14.754Z,14.07
2023-02-24T16:11:46.350Z,6.47
2023-02-24T16:14:16.972Z,11.20
2023-02-24T16:16:45.349Z,5.68
2023-02-24T16:19:15.839Z,7.22
2023-02-24T16:21:44.094Z,8.73
2023-02-24T16:24:11.577Z,10.25
2023-02-24T16:26:40.807Z,9.35
2023-02-24T16:29:14.676Z,12.25
2023-02-24T16:31:43.106Z,13.48
2023-02-24T16:34:15.316Z,9.10
2023-02-24T16:36:43.895Z,14.93
2023-02-24T16:39:13.486Z,10.10
2023-02-24T16:41:41.270Z,10.35
2023-02-24T16:44:10.645Z,6.95
2023-02-24T16:46:41.270Z,15.13
2023-02-24T16:49:13.867Z,10.57
2023-02-24T16:51:41.473Z,11.77
2023-02-24T16:54:08.735Z,9.25
2023-02-24T16:56:36.653Z,13.18
2023-02-24T16:59:04.041Z,9.02
2023-02-24T17:01:32.062Z,9.23
2023-02-24T17:03:59.498Z,12.25
2023-02-24T17:06:27.885Z,11.18
2023-02-24T17:08:55.686Z,9.90
2023-02-24T17:11:27.158Z,16.48
2023-02-24T17:13:54.757Z,9.52
2023-02-24T17:16:22.757Z,11.77
2023-02-24T17:18:50.304Z,10.77
2023-02-24T17:21:18.299Z,12.65
2023-02-24T17:23:45.986Z,7.45
2023-02-24T17:26:15.056Z,7.60
2023-02-24T17:28:42.461Z,8.50
2023-02-24T17:31:10.317Z,13.73
2023-02-24T17:33:37.628Z,13.55
2023-02-24T17:36:05.417Z,12.27
2023-02-24T17:38:32.804Z,7.72
2023-02-24T17:41:02.338Z,9.45
2023-02-24T17:43:29.751Z,17.08
2023-02-24T17:45:57.457Z,12.10
2023-02-24T17:48:24.826Z,9.77
2023-02-24T17:50:53.618Z,10.50
2023-02-24T17:53:20.989Z,12.15
2023-02-24T17:56:01.915Z,7.65
2023-02-24T17:58:30.092Z,10.55
2023-02-24T18:00:57.760Z,14.15
2023-02-24T18:03:25.170Z,7.90
2023-02-24T18:06:19.321Z,8.63
2023-02-24T18:08:46.697Z,14.15
2023-02-24T18:11:16.938Z,11.43
2023-02-24T18:13:44.587Z,9.65
2023-02-24T18:16:16.445Z,10.60
2023-02-24T18:18:44.032Z,10.38
2023-02-24T18:21:11.806Z,10.27
2023-02-24T18:23:40.615Z,8.68
2023-02-24T18:26:10.968Z,8.10
2023-02-24T18:28:39.084Z,13.25
2023-02-24T18:31:14.150Z,13.13
2023-02-24T18:33:41.789Z,14.57
2023-02-24T18:36:10.901Z,11.48
2023-02-24T18:38:38.226Z,12.30
2023-02-24T18:41:12.734Z,10.50
2023-02-24T18:43:40.107Z,11.05
2023-02-24T18:46:11.618Z,7.53
2023-02-24T18:48:40.707Z,12.98
2023-02-24T18:51:08.493Z,10.80
2023-02-24T18:53:37.021Z,11.98
2023-02-24T18:56:07.883Z,14.90
2023-02-24T18:58:37.172Z,13.63
2023-02-24T19:01:13.274Z,12.70
2023-02-24T19:03:41.379Z,12.55
2023-02-24T19:06:10.141Z,12.00
2023-02-24T19:08:39.040Z,15.43
2023-02-24T19:11:20.155Z,12.88
2023-02-24T19:13:48.257Z,13.07
2023-02-24T19:16:17.097Z,13.10
2023-02-24T19:18:45.487Z,11.65
2023-02-24T19:21:13.022Z,10.02
2023-02-24T19:23:40.354Z,8.82
2023-02-24T19:26:19.098Z,18.75
2023-02-24T19:28:46.458Z,10.80
2023-02-24T19:31:17.838Z,9.95
2023-02-24T19:33:45.464Z,9.45
2023-02-24T19:36:13.123Z,9.02
2023-02-24T19:38:42.208Z,10.75
2023-02-24T19:41:09.860Z,11.73
2023-02-24T19:43:37.693Z,9.13
2023-02-24T19:46:10.666Z,8.93
2023-02-24T19:48:38.512Z,12.98
2023-02-24T19:51:14.785Z,12.10
2023-02-24T19:53:42.094Z,7.20
2023-02-24T19:56:10.097Z,7.85
2023-02-24T19:58:38.010Z,8.75
2023-02-24T20:01:13.884Z,7.10
2023-02-24T20:03:43.084Z,9.10
2023-02-24T20:06:19.541Z,10.00
2023-02-24T20:08:48.117Z,7.53
2023-02-24T20:11:15.845Z,8.00
2023-02-24T20:13:43.192Z,9.20
2023-02-24T20:16:14.082Z,7.32
2023-02-24T20:18:42.770Z,10.23
2023-02-24T20:21:11.127Z,9.70
2023-02-24T20:23:40.284Z,10.38
2023-02-24T20:26:10.379Z,9.20
2023-02-24T20:28:37.662Z,8.82
2023-02-24T20:31:11.810Z,9.25
2023-02-24T20:33:40.990Z,8.90
2023-02-24T20:36:10.552Z,13.25
2023-02-24T20:38:39.184Z,11.32
2023-02-24T20:41:07.221Z,10.32
2023-02-24T20:43:34.776Z,10.88
2023-02-24T20:46:19.216Z,9.85
2023-02-24T20:48:46.497Z,13.32
2023-02-24T20:51:14.225Z,11.15
2023-02-24T20:53:55.943Z,8.95
2023-02-24T20:56:28.011Z,9.70
2023-02-24T20:59:01.737Z,10.75
2023-02-24T21:01:31.468Z,14.15
2023-02-24T21:03:59.749Z,10.75
2023-02-24T21:06:28.145Z,9.30
2023-02-24T21:08:56.677Z,12.40
2023-02-24T21:11:24.470Z,8.95
2023-02-24T21:13:52.178Z,9.07
2023-02-24T21:16:21.683Z,10.73
2023-02-24T21:18:50.745Z,9.18
2023-02-24T21:21:20.147Z,9.73
2023-02-24T21:23:47.850Z,10.90
2023-02-24T21:26:15.553Z,9.70
2023-02-24T21:28:42.810Z,10.02
2023-02-24T21:31:16.570Z,10.40
2023-02-24T21:33:44.346Z,12.40
2023-02-24T21:36:14.628Z,10.18
2023-02-24T21:38:42.128Z,10.35
2023-02-24T21:41:14.924Z,12.10
2023-02-24T21:43:44.350Z,7.75
2023-02-24T21:46:14.134Z,9.23
2023-02-24T21:48:42.025Z,8.60
2023-02-24T21:51:12.076Z,13.02
2023-02-24T21:53:41.936Z,10.95
2023-02-24T21:56:18.247Z,7.63
2023-02-24T21:58:49.590Z,9.35
2023-02-24T22:01:20.012Z,10.52
2023-02-24T22:03:47.757Z,12.07
2023-02-24T22:06:17.776Z,10.20
2023-02-24T22:08:45.820Z,8.57
2023-02-24T22:11:15.991Z,11.07
2023-02-24T22:13:45.200Z,8.93
2023-02-24T22:16:19.306Z,8.10
2023-02-24T22:18:48.045Z,9.57
2023-02-24T22:21:18.446Z,10.98
2023-02-24T22:23:50.791Z,13.40
2023-02-24T22:26:19.481Z,7.82
2023-02-24T22:28:47.312Z,8.65
2023-02-24T22:31:18.149Z,9.70
2023-02-24T22:33:46.344Z,9.93
2023-02-24T22:36:19.818Z,11.35
2023-02-24T22:38:47.805Z,9.32
2023-02-24T22:41:19.262Z,10.73
2023-02-24T22:43:46.717Z,11.45
2023-02-24T22:46:17.479Z,8.70
2023-02-24T22:48:45.085Z,8.27
2023-02-24T22:51:14.073Z,9.35
2023-02-24T22:53:44.193Z,8.80
2023-02-24T22:56:13.345Z,8.55
2023-02-24T22:58:41.149Z,12.77
2023-02-24T23:01:15.150Z,12.88
2023-02-24T23:03:43.634Z,10.98
2023-02-24T23:06:14.903Z,11.63
2023-02-24T23:08:44.566Z,12.18
2023-02-24T23:11:24.976Z,11.10
2023-02-24T23:13:52.662Z,10.00
2023-02-24T23:16:29.593Z,9.10
2023-02-24T23:19:04.355Z,11.60
2023-02-24T23:21:38.244Z,10.75
2023-02-24T23:24:07.079Z,10.95
2023-02-24T23:26:40.795Z,13.35
2023-02-24T23:29:10.416Z,11.88
2023-02-24T23:31:38.979Z,15.57
2023-02-24T23:34:07.470Z,14.52
2023-02-24T23:36:37.052Z,12.85
2023-02-24T23:39:06.704Z,11.10
2023-02-24T23:41:35.161Z,11.38
2023-02-24T23:44:02.874Z,11.48
2023-02-24T23:46:32.770Z,12.32
2023-02-24T23:49:00.507Z,13.68
2023-02-24T23:51:35.810Z,11.13
2023-02-24T23:54:12.058Z,9.23
2023-02-24T23:56:41.205Z,10.98
2023-02-24T23:59:08.541Z,10.93
